sensor_id;sensor_type;location;lat;lon;timestamp;P1;durP1;ratioP1;P2;durP2;ratioP2
8293;SDS011;4185;41.506;24.938;2023-05-31T00:00:43;5.63;;;4.77;;
8293;SDS011;4185;41.506;24.938;2023-05-31T00:03:10;6.57;;;4.90;;
8293;SDS011;4185;41.506;24.938;2023-05-31T00:05:37;6.67;;;4.90;;
8293;SDS011;4185;41.506;24.938;2023-05-31T00:08:05;7.90;;;5.00;;
8293;SDS011;4185;41.506;24.938;2023-05-31T00:10:31;6.83;;;5.20;;
8293;SDS011;4185;41.506;24.938;2023-05-31T00:12:58;8.70;;;5.50;;
8293;SDS011;4185;41.506;24.938;2023-05-31T00:15:25;5.53;;;4.93;;
8293;SDS011;4185;41.506;24.938;2023-05-31T00:17:52;5.37;;;4.57;;
8293;SDS011;4185;41.506;24.938;2023-05-31T00:20:18;6.60;;;4.90;;
8293;SDS011;4185;41.506;24.938;2023-05-31T00:22:46;6.70;;;5.13;;
8293;SDS011;4185;41.506;24.938;2023-05-31T00:25:15;7.13;;;4.73;;
8293;SDS011;4185;41.506;24.938;2023-05-31T00:27:41;6.50;;;5.07;;
8293;SDS011;4185;41.506;24.938;2023-05-31T00:30:09;5.87;;;5.00;;
8293;SDS011;4185;41.506;24.938;2023-05-31T00:32:36;8.43;;;5.00;;
8293;SDS011;4185;41.506;24.938;2023-05-31T00:35:03;7.60;;;4.97;;
8293;SDS011;4185;41.506;24.938;2023-05-31T00:37:30;8.90;;;5.10;;
8293;SDS011;4185;41.506;24.938;2023-05-31T00:40:01;6.50;;;4.90;;
8293;SDS011;4185;41.506;24.938;2023-05-31T00:42:29;7.93;;;6.20;;
8293;SDS011;4185;41.506;24.938;2023-05-31T00:44:56;11.17;;;6.63;;
8293;SDS011;4185;41.506;24.938;2023-05-31T00:47:23;8.07;;;5.97;;
8293;SDS011;4185;41.506;24.938;2023-05-31T00:49:50;8.03;;;6.40;;
8293;SDS011;4185;41.506;24.938;2023-05-31T00:52:17;11.57;;;6.53;;
8293;SDS011;4185;41.506;24.938;2023-05-31T00:54:45;9.40;;;5.70;;
8293;SDS011;4185;41.506;24.938;2023-05-31T00:57:12;10.10;;;5.77;;
8293;SDS011;4185;41.506;24.938;2023-05-31T00:59:40;6.70;;;5.43;;
8293;SDS011;4185;41.506;24.938;2023-05-31T01:02:07;17.53;;;6.23;;
8293;SDS011;4185;41.506;24.938;2023-05-31T01:04:35;8.57;;;5.33;;
8293;SDS011;4185;41.506;24.938;2023-05-31T01:07:02;8.33;;;5.80;;
8293;SDS011;4185;41.506;24.938;2023-05-31T01:09:29;10.00;;;5.80;;
8293;SDS011;4185;41.506;24.938;2023-05-31T01:11:59;8.47;;;5.87;;
8293;SDS011;4185;41.506;24.938;2023-05-31T01:14:36;8.20;;;5.33;;
8293;SDS011;4185;41.506;24.938;2023-05-31T01:17:17;10.97;;;6.00;;
8293;SDS011;4185;41.506;24.938;2023-05-31T01:19:55;9.50;;;6.20;;
8293;SDS011;4185;41.506;24.938;2023-05-31T01:22:31;6.03;;;5.03;;
8293;SDS011;4185;41.506;24.938;2023-05-31T01:25:22;6.83;;;5.20;;
8293;SDS011;4185;41.506;24.938;2023-05-31T01:27:59;10.13;;;6.13;;
8293;SDS011;4185;41.506;24.938;2023-05-31T01:30:27;9.07;;;5.57;;
8293;SDS011;4185;41.506;24.938;2023-05-31T01:32:56;9.93;;;6.70;;
8293;SDS011;4185;41.506;24.938;2023-05-31T01:35:26;8.27;;;6.37;;
8293;SDS011;4185;41.506;24.938;2023-05-31T01:37:53;9.93;;;6.60;;
8293;SDS011;4185;41.506;24.938;2023-05-31T01:40:20;9.40;;;6.63;;
8293;SDS011;4185;41.506;24.938;2023-05-31T01:42:47;9.97;;;7.03;;
8293;SDS011;4185;41.506;24.938;2023-05-31T01:45:17;10.47;;;7.27;;
8293;SDS011;4185;41.506;24.938;2023-05-31T01:47:44;15.77;;;11.10;;
8293;SDS011;4185;41.506;24.938;2023-05-31T01:50:13;13.40;;;10.33;;
8293;SDS011;4185;41.506;24.938;2023-05-31T01:52:40;12.27;;;9.10;;
8293;SDS011;4185;41.506;24.938;2023-05-31T01:55:08;10.53;;;6.30;;
8293;SDS011;4185;41.506;24.938;2023-05-31T01:57:35;8.13;;;6.60;;
8293;SDS011;4185;41.506;24.938;2023-05-31T02:00:05;11.60;;;6.60;;
8293;SDS011;4185;41.506;24.938;2023-05-31T02:02:38;11.50;;;6.90;;
8293;SDS011;4185;41.506;24.938;2023-05-31T02:05:07;9.07;;;6.43;;
8293;SDS011;4185;41.506;24.938;2023-05-31T02:07:36;12.10;;;6.20;;
8293;SDS011;4185;41.506;24.938;2023-05-31T02:10:03;8.13;;;6.13;;
8293;SDS011;4185;41.506;24.938;2023-05-31T02:12:31;8.93;;;6.20;;
8293;SDS011;4185;41.506;24.938;2023-05-31T02:14:57;10.67;;;6.47;;
8293;SDS011;4185;41.506;24.938;2023-05-31T02:17:24;6.63;;;5.13;;
8293;SDS011;4185;41.506;24.938;2023-05-31T02:19:53;7.93;;;5.70;;
8293;SDS011;4185;41.506;24.938;2023-05-31T02:22:20;8.87;;;5.87;;
8293;SDS011;4185;41.506;24.938;2023-05-31T02:24:47;6.13;;;5.53;;
8293;SDS011;4185;41.506;24.938;2023-05-31T02:27:14;7.57;;;6.20;;
8293;SDS011;4185;41.506;24.938;2023-05-31T02:29:41;9.40;;;6.53;;
8293;SDS011;4185;41.506;24.938;2023-05-31T02:32:11;9.27;;;5.87;;
8293;SDS011;4185;41.506;24.938;2023-05-31T02:34:38;8.40;;;6.13;;
8293;SDS011;4185;41.506;24.938;2023-05-31T02:37:06;8.07;;;5.60;;
8293;SDS011;4185;41.506;24.938;2023-05-31T02:39:33;8.00;;;5.93;;
8293;SDS011;4185;41.506;24.938;2023-05-31T02:42:00;7.67;;;5.50;;
8293;SDS011;4185;41.506;24.938;2023-05-31T02:44:27;7.40;;;5.47;;
8293;SDS011;4185;41.506;24.938;2023-05-31T02:46:53;8.80;;;5.37;;
8293;SDS011;4185;41.506;24.938;2023-05-31T02:49:21;7.20;;;5.10;;
8293;SDS011;4185;41.506;24.938;2023-05-31T02:51:47;7.57;;;5.27;;
8293;SDS011;4185;41.506;24.938;2023-05-31T02:54:16;8.50;;;6.20;;
8293;SDS011;4185;41.506;24.938;2023-05-31T02:56:42;6.23;;;5.40;;
8293;SDS011;4185;41.506;24.938;2023-05-31T02:59:09;8.60;;;5.50;;
8293;SDS011;4185;41.506;24.938;2023-05-31T03:01:36;8.50;;;5.97;;
8293;SDS011;4185;41.506;24.938;2023-05-31T03:04:03;7.37;;;5.60;;
8293;SDS011;4185;41.506;24.938;2023-05-31T03:06:29;6.80;;;5.00;;
8293;SDS011;4185;41.506;24.938;2023-05-31T03:08:56;7.33;;;5.47;;
8293;SDS011;4185;41.506;24.938;2023-05-31T03:11:24;6.40;;;5.63;;
8293;SDS011;4185;41.506;24.938;2023-05-31T03:13:51;8.53;;;5.90;;
8293;SDS011;4185;41.506;24.938;2023-05-31T03:16:18;6.10;;;5.50;;
8293;SDS011;4185;41.506;24.938;2023-05-31T03:18:45;6.70;;;5.97;;
8293;SDS011;4185;41.506;24.938;2023-05-31T03:21:12;8.13;;;6.10;;
8293;SDS011;4185;41.506;24.938;2023-05-31T03:23:40;8.40;;;6.13;;
8293;SDS011;4185;41.506;24.938;2023-05-31T03:26:07;7.00;;;5.57;;
8293;SDS011;4185;41.506;24.938;2023-05-31T03:28:35;10.13;;;6.33;;
8293;SDS011;4185;41.506;24.938;2023-05-31T03:31:02;9.60;;;6.33;;
8293;SDS011;4185;41.506;24.938;2023-05-31T03:33:28;10.77;;;6.50;;
8293;SDS011;4185;41.506;24.938;2023-05-31T03:35:56;7.90;;;6.60;;
8293;SDS011;4185;41.506;24.938;2023-05-31T03:38:23;9.17;;;6.20;;
8293;SDS011;4185;41.506;24.938;2023-05-31T03:40:50;9.43;;;6.83;;
8293;SDS011;4185;41.506;24.938;2023-05-31T03:43:16;13.47;;;7.73;;
8293;SDS011;4185;41.506;24.938;2023-05-31T03:45:44;13.43;;;8.83;;
8293;SDS011;4185;41.506;24.938;2023-05-31T03:48:11;14.30;;;7.37;;
8293;SDS011;4185;41.506;24.938;2023-05-31T03:50:38;12.00;;;8.27;;
8293;SDS011;4185;41.506;24.938;2023-05-31T03:53:05;16.30;;;8.17;;
8293;SDS011;4185;41.506;24.938;2023-05-31T03:55:32;10.57;;;6.83;;
8293;SDS011;4185;41.506;24.938;2023-05-31T03:57:59;12.20;;;7.43;;
8293;SDS011;4185;41.506;24.938;2023-05-31T04:00:26;11.37;;;7.67;;
8293;SDS011;4185;41.506;24.938;2023-05-31T04:02:54;9.97;;;7.37;;
8293;SDS011;4185;41.506;24.938;2023-05-31T04:05:20;10.33;;;7.07;;
8293;SDS011;4185;41.506;24.938;2023-05-31T04:07:47;10.83;;;7.30;;
8293;SDS011;4185;41.506;24.938;2023-05-31T04:10:14;9.53;;;6.63;;
8293;SDS011;4185;41.506;24.938;2023-05-31T04:12:41;11.87;;;7.30;;
8293;SDS011;4185;41.506;24.938;2023-05-31T04:15:08;11.30;;;6.73;;
8293;SDS011;4185;41.506;24.938;2023-05-31T04:17:35;9.83;;;7.43;;
8293;SDS011;4185;41.506;24.938;2023-05-31T04:20:05;9.80;;;6.77;;
8293;SDS011;4185;41.506;24.938;2023-05-31T04:22:33;10.53;;;6.67;;
8293;SDS011;4185;41.506;24.938;2023-05-31T04:25:00;8.30;;;6.93;;
8293;SDS011;4185;41.506;24.938;2023-05-31T04:27:27;11.33;;;7.10;;
8293;SDS011;4185;41.506;24.938;2023-05-31T04:29:55;9.23;;;7.07;;
8293;SDS011;4185;41.506;24.938;2023-05-31T04:32:23;9.77;;;7.13;;
8293;SDS011;4185;41.506;24.938;2023-05-31T04:34:50;11.90;;;6.80;;
8293;SDS011;4185;41.506;24.938;2023-05-31T04:37:24;11.37;;;7.47;;
8293;SDS011;4185;41.506;24.938;2023-05-31T04:39:51;9.30;;;6.50;;
8293;SDS011;4185;41.506;24.938;2023-05-31T04:42:18;11.73;;;7.67;;
8293;SDS011;4185;41.506;24.938;2023-05-31T04:44:45;10.47;;;6.53;;
8293;SDS011;4185;41.506;24.938;2023-05-31T04:47:13;14.57;;;8.93;;
8293;SDS011;4185;41.506;24.938;2023-05-31T04:49:40;8.93;;;6.63;;
8293;SDS011;4185;41.506;24.938;2023-05-31T04:52:07;9.07;;;6.57;;
8293;SDS011;4185;41.506;24.938;2023-05-31T04:54:36;12.80;;;7.17;;
8293;SDS011;4185;41.506;24.938;2023-05-31T04:57:03;9.70;;;7.10;;
8293;SDS011;4185;41.506;24.938;2023-05-31T04:59:30;10.80;;;7.37;;
8293;SDS011;4185;41.506;24.938;2023-05-31T05:01:57;8.37;;;6.80;;
8293;SDS011;4185;41.506;24.938;2023-05-31T05:04:24;9.80;;;6.77;;
8293;SDS011;4185;41.506;24.938;2023-05-31T05:06:51;11.07;;;7.90;;
8293;SDS011;4185;41.506;24.938;2023-05-31T05:09:18;12.10;;;7.73;;
8293;SDS011;4185;41.506;24.938;2023-05-31T05:11:46;9.73;;;7.37;;
8293;SDS011;4185;41.506;24.938;2023-05-31T05:14:13;11.93;;;8.33;;
8293;SDS011;4185;41.506;24.938;2023-05-31T05:16:39;9.20;;;7.73;;
8293;SDS011;4185;41.506;24.938;2023-05-31T05:19:06;8.97;;;7.17;;
8293;SDS011;4185;41.506;24.938;2023-05-31T05:21:33;8.10;;;7.00;;
8293;SDS011;4185;41.506;24.938;2023-05-31T05:24:00;12.60;;;8.60;;
8293;SDS011;4185;41.506;24.938;2023-05-31T05:26:26;12.07;;;8.90;;
8293;SDS011;4185;41.506;24.938;2023-05-31T05:28:54;10.70;;;8.00;;
8293;SDS011;4185;41.506;24.938;2023-05-31T05:31:21;12.43;;;8.13;;
8293;SDS011;4185;41.506;24.938;2023-05-31T05:33:48;9.63;;;7.27;;
8293;SDS011;4185;41.506;24.938;2023-05-31T05:36:16;12.57;;;9.13;;
8293;SDS011;4185;41.506;24.938;2023-05-31T05:38:43;11.47;;;8.73;;
8293;SDS011;4185;41.506;24.938;2023-05-31T05:41:10;10.63;;;8.17;;
8293;SDS011;4185;41.506;24.938;2023-05-31T05:43:37;9.10;;;6.60;;
8293;SDS011;4185;41.506;24.938;2023-05-31T05:46:05;8.30;;;6.27;;
8293;SDS011;4185;41.506;24.938;2023-05-31T05:48:32;9.27;;;6.83;;
8293;SDS011;4185;41.506;24.938;2023-05-31T05:50:59;9.73;;;6.33;;
8293;SDS011;4185;41.506;24.938;2023-05-31T05:53:26;8.33;;;6.80;;
8293;SDS011;4185;41.506;24.938;2023-05-31T05:55:53;9.77;;;6.73;;
8293;SDS011;4185;41.506;24.938;2023-05-31T05:58:20;10.13;;;6.13;;
8293;SDS011;4185;41.506;24.938;2023-05-31T06:00:47;7.03;;;6.27;;
8293;SDS011;4185;41.506;24.938;2023-05-31T06:03:15;8.07;;;6.30;;
8293;SDS011;4185;41.506;24.938;2023-05-31T06:05:42;8.10;;;5.87;;
8293;SDS011;4185;41.506;24.938;2023-05-31T06:08:09;7.77;;;6.33;;
8293;SDS011;4185;41.506;24.938;2023-05-31T06:10:36;7.40;;;5.87;;
8293;SDS011;4185;41.506;24.938;2023-05-31T06:13:06;7.83;;;5.77;;
8293;SDS011;4185;41.506;24.938;2023-05-31T06:15:33;7.77;;;6.33;;
8293;SDS011;4185;41.506;24.938;2023-05-31T06:18:00;11.20;;;6.23;;
8293;SDS011;4185;41.506;24.938;2023-05-31T06:20:28;6.87;;;5.63;;
8293;SDS011;4185;41.506;24.938;2023-05-31T06:22:55;7.30;;;6.53;;
8293;SDS011;4185;41.506;24.938;2023-05-31T06:25:22;6.20;;;5.57;;
8293;SDS011;4185;41.506;24.938;2023-05-31T06:27:49;7.40;;;6.23;;
8293;SDS011;4185;41.506;24.938;2023-05-31T06:30:16;7.33;;;5.67;;
8293;SDS011;4185;41.506;24.938;2023-05-31T06:32:42;7.73;;;5.53;;
8293;SDS011;4185;41.506;24.938;2023-05-31T06:35:09;6.87;;;5.83;;
8293;SDS011;4185;41.506;24.938;2023-05-31T06:37:37;7.10;;;6.23;;
8293;SDS011;4185;41.506;24.938;2023-05-31T06:40:05;7.70;;;5.77;;
8293;SDS011;4185;41.506;24.938;2023-05-31T06:42:34;7.97;;;5.40;;
8293;SDS011;4185;41.506;24.938;2023-05-31T06:45:01;7.90;;;5.93;;
8293;SDS011;4185;41.506;24.938;2023-05-31T06:47:28;8.37;;;5.50;;
8293;SDS011;4185;41.506;24.938;2023-05-31T06:49:54;7.27;;;5.53;;
8293;SDS011;4185;41.506;24.938;2023-05-31T06:52:21;7.47;;;5.70;;
8293;SDS011;4185;41.506;24.938;2023-05-31T06:54:49;6.97;;;5.33;;
8293;SDS011;4185;41.506;24.938;2023-05-31T06:57:16;6.47;;;5.23;;
8293;SDS011;4185;41.506;24.938;2023-05-31T06:59:43;6.67;;;5.30;;
8293;SDS011;4185;41.506;24.938;2023-05-31T07:02:10;7.63;;;5.67;;
8293;SDS011;4185;41.506;24.938;2023-05-31T07:04:36;7.77;;;5.77;;
8293;SDS011;4185;41.506;24.938;2023-05-31T07:07:03;7.33;;;5.47;;
8293;SDS011;4185;41.506;24.938;2023-05-31T07:09:31;7.40;;;5.97;;
8293;SDS011;4185;41.506;24.938;2023-05-31T07:12:00;7.97;;;6.57;;
8293;SDS011;4185;41.506;24.938;2023-05-31T07:14:27;7.93;;;6.13;;
8293;SDS011;4185;41.506;24.938;2023-05-31T07:16:54;7.67;;;6.10;;
8293;SDS011;4185;41.506;24.938;2023-05-31T07:19:21;7.37;;;5.40;;
8293;SDS011;4185;41.506;24.938;2023-05-31T07:21:47;8.33;;;5.67;;
8293;SDS011;4185;41.506;24.938;2023-05-31T07:24:14;6.90;;;5.30;;
8293;SDS011;4185;41.506;24.938;2023-05-31T07:26:41;6.23;;;5.60;;
8293;SDS011;4185;41.506;24.938;2023-05-31T07:29:09;7.90;;;5.90;;
8293;SDS011;4185;41.506;24.938;2023-05-31T07:31:37;7.93;;;5.67;;
8293;SDS011;4185;41.506;24.938;2023-05-31T07:34:03;5.93;;;5.33;;
8293;SDS011;4185;41.506;24.938;2023-05-31T07:36:30;6.60;;;5.60;;
8293;SDS011;4185;41.506;24.938;2023-05-31T07:38:57;7.33;;;5.50;;
8293;SDS011;4185;41.506;24.938;2023-05-31T07:41:24;6.53;;;4.87;;
8293;SDS011;4185;41.506;24.938;2023-05-31T07:43:52;5.80;;;5.20;;
8293;SDS011;4185;41.506;24.938;2023-05-31T07:46:21;5.07;;;4.57;;
8293;SDS011;4185;41.506;24.938;2023-05-31T07:48:48;7.27;;;5.17;;
8293;SDS011;4185;41.506;24.938;2023-05-31T07:51:15;7.20;;;4.97;;
8293;SDS011;4185;41.506;24.938;2023-05-31T07:53:42;5.70;;;5.00;;
8293;SDS011;4185;41.506;24.938;2023-05-31T07:56:08;6.90;;;5.33;;
8293;SDS011;4185;41.506;24.938;2023-05-31T07:58:35;6.93;;;4.80;;
8293;SDS011;4185;41.506;24.938;2023-05-31T08:01:02;5.67;;;4.67;;
8293;SDS011;4185;41.506;24.938;2023-05-31T08:03:30;9.40;;;5.50;;
8293;SDS011;4185;41.506;24.938;2023-05-31T08:05:57;5.80;;;5.07;;
8293;SDS011;4185;41.506;24.938;2023-05-31T08:08:24;7.10;;;5.00;;
8293;SDS011;4185;41.506;24.938;2023-05-31T08:10:51;5.80;;;4.67;;
8293;SDS011;4185;41.506;24.938;2023-05-31T08:13:17;6.33;;;5.20;;
8293;SDS011;4185;41.506;24.938;2023-05-31T08:15:44;7.60;;;6.50;;
8293;SDS011;4185;41.506;24.938;2023-05-31T08:18:11;5.93;;;5.33;;
8293;SDS011;4185;41.506;24.938;2023-05-31T08:20:39;6.63;;;4.70;;
8293;SDS011;4185;41.506;24.938;2023-05-31T08:23:06;5.30;;;4.70;;
8293;SDS011;4185;41.506;24.938;2023-05-31T08:25:33;6.70;;;4.67;;
8293;SDS011;4185;41.506;24.938;2023-05-31T08:27:59;7.37;;;4.67;;
8293;SDS011;4185;41.506;24.938;2023-05-31T08:30:26;5.40;;;4.77;;
8293;SDS011;4185;41.506;24.938;2023-05-31T08:32:53;6.00;;;5.13;;
8293;SDS011;4185;41.506;24.938;2023-05-31T08:35:22;6.63;;;5.10;;
8293;SDS011;4185;41.506;24.938;2023-05-31T08:37:50;8.13;;;5.33;;
8293;SDS011;4185;41.506;24.938;2023-05-31T08:40:18;5.77;;;4.43;;
8293;SDS011;4185;41.506;24.938;2023-05-31T08:42:47;6.10;;;5.07;;
8293;SDS011;4185;41.506;24.938;2023-05-31T08:45:18;7.83;;;4.93;;
8293;SDS011;4185;41.506;24.938;2023-05-31T08:47:48;7.03;;;4.60;;
8293;SDS011;4185;41.506;24.938;2023-05-31T08:50:22;6.70;;;4.83;;
8293;SDS011;4185;41.506;24.938;2023-05-31T08:52:52;5.97;;;5.00;;
8293;SDS011;4185;41.506;24.938;2023-05-31T08:55:20;7.90;;;4.97;;
8293;SDS011;4185;41.506;24.938;2023-05-31T08:57:47;6.13;;;5.27;;
8293;SDS011;4185;41.506;24.938;2023-05-31T09:00:16;7.77;;;4.67;;
8293;SDS011;4185;41.506;24.938;2023-05-31T09:02:45;6.60;;;4.80;;
8293;SDS011;4185;41.506;24.938;2023-05-31T09:05:13;6.37;;;4.77;;
8293;SDS011;4185;41.506;24.938;2023-05-31T09:07:40;5.70;;;5.10;;
8293;SDS011;4185;41.506;24.938;2023-05-31T09:10:09;6.10;;;4.80;;
8293;SDS011;4185;41.506;24.938;2023-05-31T09:12:39;6.57;;;5.27;;
8293;SDS011;4185;41.506;24.938;2023-05-31T09:15:06;6.53;;;5.20;;
8293;SDS011;4185;41.506;24.938;2023-05-31T09:17:34;6.27;;;4.90;;
8293;SDS011;4185;41.506;24.938;2023-05-31T09:20:01;8.57;;;5.93;;
8293;SDS011;4185;41.506;24.938;2023-05-31T09:22:30;6.87;;;5.83;;
8293;SDS011;4185;41.506;24.938;2023-05-31T09:24:59;8.27;;;5.50;;
8293;SDS011;4185;41.506;24.938;2023-05-31T09:27:34;7.50;;;5.90;;
8293;SDS011;4185;41.506;24.938;2023-05-31T09:30:06;8.63;;;5.40;;
8293;SDS011;4185;41.506;24.938;2023-05-31T09:32:34;6.53;;;5.83;;
8293;SDS011;4185;41.506;24.938;2023-05-31T09:35:11;6.43;;;5.47;;
8293;SDS011;4185;41.506;24.938;2023-05-31T09:37:42;20.00;;;10.67;;
8293;SDS011;4185;41.506;24.938;2023-05-31T09:40:12;16.07;;;10.43;;
8293;SDS011;4185;41.506;24.938;2023-05-31T09:42:47;7.23;;;6.37;;
8293;SDS011;4185;41.506;24.938;2023-05-31T09:45:15;10.10;;;6.70;;
8293;SDS011;4185;41.506;24.938;2023-05-31T09:47:41;7.33;;;4.97;;
8293;SDS011;4185;41.506;24.938;2023-05-31T09:50:09;6.93;;;5.97;;
8293;SDS011;4185;41.506;24.938;2023-05-31T09:52:36;9.90;;;6.60;;
8293;SDS011;4185;41.506;24.938;2023-05-31T09:55:07;7.23;;;5.73;;
8293;SDS011;4185;41.506;24.938;2023-05-31T09:57:36;6.93;;;5.57;;
8293;SDS011;4185;41.506;24.938;2023-05-31T10:00:08;7.93;;;5.67;;
8293;SDS011;4185;41.506;24.938;2023-05-31T10:02:43;8.50;;;5.43;;
8293;SDS011;4185;41.506;24.938;2023-05-31T10:05:11;7.57;;;5.20;;
8293;SDS011;4185;41.506;24.938;2023-05-31T10:07:39;7.53;;;4.60;;
8293;SDS011;4185;41.506;24.938;2023-05-31T10:10:07;6.33;;;4.80;;
8293;SDS011;4185;41.506;24.938;2023-05-31T10:12:36;5.30;;;3.67;;
8293;SDS011;4185;41.506;24.938;2023-05-31T10:15:08;5.73;;;3.97;;
8293;SDS011;4185;41.506;24.938;2023-05-31T10:17:39;6.10;;;4.10;;
8293;SDS011;4185;41.506;24.938;2023-05-31T10:20:13;7.83;;;4.07;;
8293;SDS011;4185;41.506;24.938;2023-05-31T10:22:43;5.93;;;4.57;;
8293;SDS011;4185;41.506;24.938;2023-05-31T10:25:15;5.97;;;3.73;;
8293;SDS011;4185;41.506;24.938;2023-05-31T10:27:50;5.83;;;4.20;;
8293;SDS011;4185;41.506;24.938;2023-05-31T10:30:22;5.20;;;4.40;;
8293;SDS011;4185;41.506;24.938;2023-05-31T10:32:55;7.93;;;5.37;;
8293;SDS011;4185;41.506;24.938;2023-05-31T10:35:27;6.70;;;4.33;;
8293;SDS011;4185;41.506;24.938;2023-05-31T10:37:54;6.40;;;4.10;;
8293;SDS011;4185;41.506;24.938;2023-05-31T10:40:22;8.00;;;4.40;;
8293;SDS011;4185;41.506;24.938;2023-05-31T10:42:56;5.40;;;4.20;;
8293;SDS011;4185;41.506;24.938;2023-05-31T10:45:33;5.67;;;3.70;;
8293;SDS011;4185;41.506;24.938;2023-05-31T10:48:06;6.63;;;4.20;;
8293;SDS011;4185;41.506;24.938;2023-05-31T10:53:23;7.93;;;4.67;;
8293;SDS011;4185;41.506;24.938;2023-05-31T10:56:00;7.90;;;5.50;;
8293;SDS011;4185;41.506;24.938;2023-05-31T10:58:29;5.57;;;4.77;;
8293;SDS011;4185;41.506;24.938;2023-05-31T11:01:02;8.93;;;5.43;;
8293;SDS011;4185;41.506;24.938;2023-05-31T11:03:32;7.63;;;6.03;;
8293;SDS011;4185;41.506;24.938;2023-05-31T11:06:00;10.93;;;6.67;;
8293;SDS011;4185;41.506;24.938;2023-05-31T11:08:29;7.13;;;5.53;;
8293;SDS011;4185;41.506;24.938;2023-05-31T11:13:56;7.63;;;6.60;;
8293;SDS011;4185;41.506;24.938;2023-05-31T11:16:26;7.33;;;5.60;;
8293;SDS011;4185;41.506;24.938;2023-05-31T11:19:06;7.80;;;5.77;;
8293;SDS011;4185;41.506;24.938;2023-05-31T11:21:46;7.87;;;6.07;;
8293;SDS011;4185;41.506;24.938;2023-05-31T11:24:26;10.70;;;6.93;;
8293;SDS011;4185;41.506;24.938;2023-05-31T11:26:54;10.30;;;6.60;;
8293;SDS011;4185;41.506;24.938;2023-05-31T11:29:23;8.77;;;5.70;;
8293;SDS011;4185;41.506;24.938;2023-05-31T11:32:00;9.53;;;5.57;;
8293;SDS011;4185;41.506;24.938;2023-05-31T11:34:28;6.37;;;4.63;;
8293;SDS011;4185;41.506;24.938;2023-05-31T11:36:57;8.47;;;5.07;;
8293;SDS011;4185;41.506;24.938;2023-05-31T11:39:25;6.97;;;5.30;;
8293;SDS011;4185;41.506;24.938;2023-05-31T11:41:53;6.50;;;5.17;;
8293;SDS011;4185;41.506;24.938;2023-05-31T11:44:21;11.80;;;6.03;;
8293;SDS011;4185;41.506;24.938;2023-05-31T11:46:55;11.00;;;7.00;;
8293;SDS011;4185;41.506;24.938;2023-05-31T11:49:29;10.43;;;6.43;;
8293;SDS011;4185;41.506;24.938;2023-05-31T11:51:56;8.73;;;6.80;;
8293;SDS011;4185;41.506;24.938;2023-05-31T11:54:26;7.40;;;6.07;;
8293;SDS011;4185;41.506;24.938;2023-05-31T11:56:55;12.77;;;7.70;;
8293;SDS011;4185;41.506;24.938;2023-05-31T11:59:25;14.90;;;9.17;;
8293;SDS011;4185;41.506;24.938;2023-05-31T12:01:56;16.60;;;9.63;;
8293;SDS011;4185;41.506;24.938;2023-05-31T12:04:29;19.77;;;11.23;;
8293;SDS011;4185;41.506;24.938;2023-05-31T12:06:59;10.53;;;8.47;;
8293;SDS011;4185;41.506;24.938;2023-05-31T12:09:26;10.93;;;7.80;;
8293;SDS011;4185;41.506;24.938;2023-05-31T12:11:54;8.53;;;6.57;;
8293;SDS011;4185;41.506;24.938;2023-05-31T12:14:22;7.73;;;5.70;;
8293;SDS011;4185;41.506;24.938;2023-05-31T12:16:49;7.40;;;5.30;;
8293;SDS011;4185;41.506;24.938;2023-05-31T12:19:16;6.27;;;5.43;;
8293;SDS011;4185;41.506;24.938;2023-05-31T12:21:44;6.43;;;5.50;;
8293;SDS011;4185;41.506;24.938;2023-05-31T12:24:11;6.80;;;6.07;;
8293;SDS011;4185;41.506;24.938;2023-05-31T12:26:39;6.50;;;5.50;;
8293;SDS011;4185;41.506;24.938;2023-05-31T12:29:06;8.43;;;5.90;;
8293;SDS011;4185;41.506;24.938;2023-05-31T12:31:33;6.47;;;5.10;;
8293;SDS011;4185;41.506;24.938;2023-05-31T12:34:05;9.50;;;6.10;;
8293;SDS011;4185;41.506;24.938;2023-05-31T12:36:36;7.67;;;5.00;;
8293;SDS011;4185;41.506;24.938;2023-05-31T12:39:07;6.47;;;4.93;;
8293;SDS011;4185;41.506;24.938;2023-05-31T12:41:36;8.07;;;5.50;;
8293;SDS011;4185;41.506;24.938;2023-05-31T12:44:03;6.53;;;5.20;;
8293;SDS011;4185;41.506;24.938;2023-05-31T12:46:39;6.83;;;4.90;;
8293;SDS011;4185;41.506;24.938;2023-05-31T12:49:10;5.40;;;4.90;;
8293;SDS011;4185;41.506;24.938;2023-05-31T12:51:44;5.50;;;4.97;;
8293;SDS011;4185;41.506;24.938;2023-05-31T12:54:13;5.07;;;4.57;;
8293;SDS011;4185;41.506;24.938;2023-05-31T12:56:42;5.03;;;4.10;;
8293;SDS011;4185;41.506;24.938;2023-05-31T12:59:09;6.57;;;4.47;;
8293;SDS011;4185;41.506;24.938;2023-05-31T13:01:36;6.73;;;5.03;;
8293;SDS011;4185;41.506;24.938;2023-05-31T13:04:05;5.37;;;4.50;;
8293;SDS011;4185;41.506;24.938;2023-05-31T13:06:32;5.00;;;4.50;;
8293;SDS011;4185;41.506;24.938;2023-05-31T13:09:00;5.47;;;4.97;;
8293;SDS011;4185;41.506;24.938;2023-05-31T13:11:31;6.10;;;5.00;;
8293;SDS011;4185;41.506;24.938;2023-05-31T13:13:59;6.53;;;4.80;;
8293;SDS011;4185;41.506;24.938;2023-05-31T13:16:26;6.77;;;4.83;;
8293;SDS011;4185;41.506;24.938;2023-05-31T13:18:54;6.13;;;4.80;;
8293;SDS011;4185;41.506;24.938;2023-05-31T13:21:21;6.90;;;5.43;;
8293;SDS011;4185;41.506;24.938;2023-05-31T13:23:48;7.67;;;5.30;;
8293;SDS011;4185;41.506;24.938;2023-05-31T13:26:14;6.80;;;5.03;;
8293;SDS011;4185;41.506;24.938;2023-05-31T13:28:43;5.57;;;4.80;;
8293;SDS011;4185;41.506;24.938;2023-05-31T13:31:10;5.73;;;4.80;;
8293;SDS011;4185;41.506;24.938;2023-05-31T13:33:37;6.87;;;4.93;;
8293;SDS011;4185;41.506;24.938;2023-05-31T13:36:03;6.53;;;5.07;;
8293;SDS011;4185;41.506;24.938;2023-05-31T13:38:31;5.33;;;4.83;;
8293;SDS011;4185;41.506;24.938;2023-05-31T13:40:58;5.80;;;5.17;;
8293;SDS011;4185;41.506;24.938;2023-05-31T13:43:25;6.77;;;4.80;;
8293;SDS011;4185;41.506;24.938;2023-05-31T13:45:53;6.63;;;5.00;;
8293;SDS011;4185;41.506;24.938;2023-05-31T13:48:20;5.77;;;4.97;;
8293;SDS011;4185;41.506;24.938;2023-05-31T13:50:47;5.40;;;4.90;;
8293;SDS011;4185;41.506;24.938;2023-05-31T13:53:14;5.77;;;5.03;;
8293;SDS011;4185;41.506;24.938;2023-05-31T13:55:41;7.93;;;5.30;;
8293;SDS011;4185;41.506;24.938;2023-05-31T13:58:08;6.97;;;5.47;;
8293;SDS011;4185;41.506;24.938;2023-05-31T14:00:35;6.47;;;4.90;;
8293;SDS011;4185;41.506;24.938;2023-05-31T14:03:03;7.00;;;4.80;;
8293;SDS011;4185;41.506;24.938;2023-05-31T14:05:30;5.83;;;5.13;;
8293;SDS011;4185;41.506;24.938;2023-05-31T14:07:57;5.50;;;5.00;;
8293;SDS011;4185;41.506;24.938;2023-05-31T14:10:24;6.63;;;5.37;;
8293;SDS011;4185;41.506;24.938;2023-05-31T14:12:51;11.83;;;5.50;;
8293;SDS011;4185;41.506;24.938;2023-05-31T14:15:18;7.00;;;6.10;;
8293;SDS011;4185;41.506;24.938;2023-05-31T14:17:45;6.83;;;5.63;;
8293;SDS011;4185;41.506;24.938;2023-05-31T14:20:13;8.97;;;5.70;;
8293;SDS011;4185;41.506;24.938;2023-05-31T14:22:40;7.80;;;4.97;;
8293;SDS011;4185;41.506;24.938;2023-05-31T14:25:07;5.60;;;5.03;;
8293;SDS011;4185;41.506;24.938;2023-05-31T14:27:34;8.20;;;5.90;;
8293;SDS011;4185;41.506;24.938;2023-05-31T14:30:01;6.90;;;5.87;;
8293;SDS011;4185;41.506;24.938;2023-05-31T14:32:29;6.13;;;5.30;;
8293;SDS011;4185;41.506;24.938;2023-05-31T14:34:56;7.73;;;5.47;;
8293;SDS011;4185;41.506;24.938;2023-05-31T14:37:24;7.63;;;5.20;;
8293;SDS011;4185;41.506;24.938;2023-05-31T14:39:50;6.03;;;5.30;;
8293;SDS011;4185;41.506;24.938;2023-05-31T14:42:17;7.33;;;5.03;;
8293;SDS011;4185;41.506;24.938;2023-05-31T14:44:44;6.43;;;5.30;;
8293;SDS011;4185;41.506;24.938;2023-05-31T14:47:11;5.70;;;5.20;;
8293;SDS011;4185;41.506;24.938;2023-05-31T14:49:38;5.87;;;5.07;;
8293;SDS011;4185;41.506;24.938;2023-05-31T14:52:05;7.13;;;5.37;;
8293;SDS011;4185;41.506;24.938;2023-05-31T14:54:34;6.30;;;5.70;;
8293;SDS011;4185;41.506;24.938;2023-05-31T14:57:01;7.43;;;5.73;;
8293;SDS011;4185;41.506;24.938;2023-05-31T14:59:28;5.67;;;4.93;;
8293;SDS011;4185;41.506;24.938;2023-05-31T15:01:55;5.67;;;5.17;;
8293;SDS011;4185;41.506;24.938;2023-05-31T15:04:23;6.97;;;5.60;;
8293;SDS011;4185;41.506;24.938;2023-05-31T15:06:50;5.87;;;5.27;;
8293;SDS011;4185;41.506;24.938;2023-05-31T15:09:17;8.13;;;5.10;;